Time;durP1;ratioP1;P1;durP2;ratioP2;P2;SDS_P1;SDS_P2;PMS_P1;PMS_P2;Temp;Humidity;BMP_temperature;BMP_pressure;BME280_temperature;BME280_humidity;BME280_pressure;Samples;Min_cycle;Max_cycle;Signal;HPM_P1;HPM_P2
2022/08/07 00:00:38;;;;;;;0.00;0.00;;;;;;;;;;5096376;28;20024;-63
2022/08/07 00:03:03;;;;;;;0.00;0.00;;;;;;;;;;5096123;28;20048;-62
2022/08/07 00:05:28;;;;;;;0.00;0.00;;;;;;;;;;5096100;28;20476;-62
2022/08/07 00:07:54;;;;;;;0.00;0.00;;;;;;;;;;5090602;28;20469;-62
2022/08/07 00:10:20;;;;;;;0.00;0.00;;;;;;;;;;5080708;28;20031;-61
2022/08/07 00:12:45;;;;;;;0.00;0.00;;;;;;;;;;5090396;28;20059;-62
2022/08/07 00:15:11;;;;;;;0.00;0.00;;;;;;;;;;5088520;28;20454;-62
2022/08/07 00:17:36;;;;;;;0.00;0.00;;;;;;;;;;5087173;28;20020;-63
2022/08/07 00:20:02;;;;;;;0.00;0.00;;;;;;;;;;5085155;28;20037;-63
2022/08/07 00:22:27;;;;;;;0.00;0.00;;;;;;;;;;5082679;28;20035;-62
2022/08/07 00:24:53;;;;;;;0.00;0.00;;;;;;;;;;5081657;28;20020;-63
2022/08/07 00:27:18;;;;;;;0.00;0.00;;;;;;;;;;5081634;28;20024;-61
2022/08/07 00:29:43;;;;;;;0.00;0.00;;;;;;;;;;5083512;28;20145;-61
2022/08/07 00:32:10;;;;;;;0.00;0.00;;;;;;;;;;5081241;28;20040;-61
2022/08/07 00:34:35;;;;;;;0.00;0.00;;;;;;;;;;5081000;28;20027;-60
2022/08/07 00:37:00;;;;;;;0.00;0.00;;;;;;;;;;5083999;28;20008;-60
2022/08/07 00:39:25;;;;;;;0.20;0.13;;;;;;;;;;5085285;28;20020;-61
2022/08/07 00:41:52;;;;;;;0.00;0.00;;;;;;;;;;5081393;28;20024;-60
2022/08/07 00:44:17;;;;;;;0.00;0.00;;;;;;;;;;5086733;28;20020;-61
2022/08/07 00:46:42;;;;;;;0.00;0.00;;;;;;;;;;5078570;28;20549;-61
2022/08/07 00:49:08;;;;;;;0.00;0.00;;;;;;;;;;5087131;28;20048;-63
2022/08/07 00:51:34;;;;;;;0.00;0.00;;;;;;;;;;5086919;28;20428;-64
2022/08/07 00:53:59;;;;;;;0.00;0.00;;;;;;;;;;5078994;28;20362;-63
2022/08/07 00:56:24;;;;;;;0.00;0.00;;;;;;;;;;5080845;28;20119;-63
2022/08/07 00:58:50;;;;;;;0.00;0.00;;;;;;;;;;5079268;28;20021;-62
2022/08/07 01:01:16;;;;;;;0.00;0.00;;;;;;;;;;5085768;28;20016;-62
2022/08/07 01:03:41;;;;;;;0.00;0.00;;;;;;;;;;5084957;28;20461;-63
2022/08/07 01:06:07;;;;;;;0.00;0.00;;;;;;;;;;5081764;28;20012;-62
2022/08/07 01:08:32;;;;;;;0.00;0.00;;;;;;;;;;5085219;28;20031;-62
2022/08/07 01:10:57;;;;;;;0.00;0.00;;;;;;;;;;5083889;28;20501;-61
2022/08/07 01:13:22;;;;;;;0.00;0.00;;;;;;;;;;5082031;28;20470;-63
2022/08/07 01:15:49;;;;;;;0.00;0.00;;;;;;;;;;5095242;28;20020;-64
2022/08/07 01:18:14;;;;;;;0.00;0.00;;;;;;;;;;5092784;28;20036;-64
2022/08/07 01:20:43;;;;;;;0.00;0.00;;;;;;;;;;5087187;28;20035;-62
2022/08/07 01:23:10;;;;;;;0.00;0.00;;;;;;;;;;5082087;28;20027;-61
2022/08/07 01:25:36;;;;;;;0.00;0.00;;;;;;;;;;5083772;28;20098;-62
2022/08/07 01:28:01;;;;;;;0.00;0.00;;;;;;;;;;5084654;28;20529;-62
2022/08/07 01:30:27;;;;;;;0.00;0.00;;;;;;;;;;5088208;28;20074;-63
2022/08/07 01:32:53;;;;;;;0.00;0.00;;;;;;;;;;5076377;28;20047;-63
2022/08/07 01:35:18;;;;;;;0.00;0.00;;;;;;;;;;5090537;28;20028;-64
2022/08/07 01:37:43;;;;;;;0.00;0.00;;;;;;;;;;5089929;28;20548;-62
2022/08/07 01:40:09;;;;;;;0.00;0.00;;;;;;;;;;5085954;28;20032;-63
2022/08/07 01:42:35;;;;;;;0.00;0.00;;;;;;;;;;5090134;28;20030;-62
2022/08/07 01:45:01;;;;;;;0.00;0.00;;;;;;;;;;5089784;28;20027;-62
2022/08/07 01:47:26;;;;;;;0.00;0.00;;;;;;;;;;5083837;28;20020;-61
2022/08/07 01:49:52;;;;;;;0.00;0.00;;;;;;;;;;5082735;28;20044;-64
2022/08/07 01:52:18;;;;;;;0.00;0.00;;;;;;;;;;5082445;28;20039;-64
2022/08/07 01:54:43;;;;;;;0.03;0.03;;;;;;;;;;5083400;28;20036;-61
2022/08/07 01:57:17;;;;;;;0.00;0.00;;;;;;;;;;5072879;28;20028;-60
2022/08/07 01:59:45;;;;;;;0.00;0.00;;;;;;;;;;5087365;28;20134;-62
2022/08/07 02:02:19;;;;;;;0.00;0.00;;;;;;;;;;5078463;28;20019;-62
2022/08/07 02:04:56;;;;;;;0.00;0.00;;;;;;;;;;5088599;28;20035;-61
2022/08/07 02:07:22;;;;;;;0.00;0.00;;;;;;;;;;5089665;28;20684;-62
2022/08/07 02:09:49;;;;;;;0.00;0.00;;;;;;;;;;5069855;28;20020;-62
2022/08/07 02:12:18;;;;;;;0.00;0.00;;;;;;;;;;5072187;28;20024;-62
2022/08/07 02:14:53;;;;;;;0.00;0.00;;;;;;;;;;5084860;28;20020;-62
2022/08/07 02:17:19;;;;;;;0.00;0.00;;;;;;;;;;5077850;28;20025;-62
2022/08/07 02:19:46;;;;;;;0.00;0.00;;;;;;;;;;5068946;28;20036;-60
2022/08/07 02:22:12;;;;;;;0.00;0.00;;;;;;;;;;5079939;28;20024;-62
2022/08/07 02:24:39;;;;;;;0.00;0.00;;;;;;;;;;5086129;28;21048;-61
2022/08/07 02:27:04;;;;;;;0.00;0.00;;;;;;;;;;5071167;28;20032;-61
2022/08/07 02:29:30;;;;;;;0.00;0.00;;;;;;;;;;5081505;28;20021;-61
2022/08/07 02:31:55;;;;;;;0.00;0.00;;;;;;;;;;5068763;28;20090;-61
2022/08/07 02:34:21;;;;;;;0.00;0.00;;;;;;;;;;5076687;28;20020;-63
2022/08/07 02:36:47;;;;;;;0.00;0.00;;;;;;;;;;5068572;28;20377;-63
2022/08/07 02:39:12;;;;;;;0.00;0.00;;;;;;;;;;5076390;28;20106;-62
2022/08/07 02:41:38;;;;;;;0.00;0.00;;;;;;;;;;5077466;28;20185;-62
2022/08/07 02:44:03;;;;;;;0.00;0.00;;;;;;;;;;5082929;28;20477;-62
2022/08/07 02:46:29;;;;;;;0.00;0.00;;;;;;;;;;5081041;28;20026;-61
2022/08/07 02:48:55;;;;;;;0.00;0.00;;;;;;;;;;5082445;28;20034;-61
2022/08/07 02:51:23;;;;;;;0.00;0.00;;;;;;;;;;5080933;28;20027;-65
2022/08/07 02:53:53;;;;;;;0.00;0.00;;;;;;;;;;5077216;28;20025;-64
2022/08/07 02:56:19;;;;;;;0.45;0.45;;;;;;;;;;5081382;28;20039;-63
2022/08/07 02:58:45;;;;;;;0.00;0.00;;;;;;;;;;5080018;28;20060;-64
2022/08/07 03:01:10;;;;;;;0.00;0.00;;;;;;;;;;5080141;28;20036;-64
2022/08/07 03:03:36;;;;;;;0.00;0.00;;;;;;;;;;5088610;28;20029;-61
2022/08/07 03:06:03;;;;;;;0.10;0.10;;;;;;;;;;5090554;28;20023;-61
2022/08/07 03:08:28;;;;;;;0.00;0.00;;;;;;;;;;5089059;28;20019;-64
2022/08/07 03:10:54;;;;;;;0.00;0.00;;;;;;;;;;5080577;28;20028;-65
2022/08/07 03:13:20;;;;;;;0.00;0.00;;;;;;;;;;5077089;28;20032;-64
2022/08/07 03:15:45;;;;;;;0.00;0.00;;;;;;;;;;5076667;28;20028;-64
2022/08/07 03:18:11;;;;;;;0.00;0.00;;;;;;;;;;5081884;28;20028;-67
2022/08/07 03:20:37;;;;;;;0.00;0.00;;;;;;;;;;5084932;28;20107;-64
2022/08/07 03:23:03;;;;;;;0.00;0.00;;;;;;;;;;5084751;28;20189;-64
2022/08/07 03:25:30;;;;;;;0.00;0.00;;;;;;;;;;5080369;28;20032;-64
2022/08/07 03:27:56;;;;;;;0.00;0.00;;;;;;;;;;5085995;28;20009;-65
2022/08/07 03:30:22;;;;;;;0.00;0.00;;;;;;;;;;5084765;28;20050;-65
2022/08/07 03:32:48;;;;;;;0.00;0.00;;;;;;;;;;5090345;28;20060;-65
2022/08/07 03:35:20;;;;;;;0.00;0.00;;;;;;;;;;5086015;28;20441;-64
2022/08/07 03:37:47;;;;;;;0.00;0.00;;;;;;;;;;5084851;28;20028;-65
2022/08/07 03:40:12;;;;;;;0.00;0.00;;;;;;;;;;5082386;28;20123;-65
2022/08/07 03:42:38;;;;;;;0.00;0.00;;;;;;;;;;5086012;28;20605;-65
2022/08/07 03:45:03;;;;;;;0.00;0.00;;;;;;;;;;5074107;28;20024;-65
2022/08/07 03:47:29;;;;;;;0.00;0.00;;;;;;;;;;5081276;28;20021;-64
2022/08/07 03:49:55;;;;;;;0.00;0.00;;;;;;;;;;5088781;28;20055;-62
2022/08/07 03:52:22;;;;;;;0.00;0.00;;;;;;;;;;5096944;28;20449;-64
2022/08/07 03:54:47;;;;;;;0.00;0.00;;;;;;;;;;5096285;28;20116;-62
2022/08/07 03:57:13;;;;;;;0.00;0.00;;;;;;;;;;5096668;28;20495;-66
2022/08/07 03:59:39;;;;;;;0.00;0.00;;;;;;;;;;5091872;28;20031;-64
2022/08/07 04:02:04;;;;;;;0.00;0.00;;;;;;;;;;5080898;28;20063;-60
2022/08/07 04:04:29;;;;;;;0.00;0.00;;;;;;;;;;5085523;28;20465;-60
2022/08/07 04:06:56;;;;;;;0.00;0.00;;;;;;;;;;5081824;28;20046;-60
2022/08/07 04:09:21;;;;;;;0.00;0.00;;;;;;;;;;5073988;28;20446;-61
2022/08/07 04:11:48;;;;;;;0.00;0.00;;;;;;;;;;5084329;28;20029;-60
2022/08/07 04:14:13;;;;;;;0.00;0.00;;;;;;;;;;5084476;28;20077;-64
2022/08/07 04:16:38;;;;;;;0.00;0.00;;;;;;;;;;5082015;28;20028;-64
2022/08/07 04:19:04;;;;;;;0.10;0.10;;;;;;;;;;5083469;28;20108;-65
2022/08/07 04:21:29;;;;;;;0.00;0.00;;;;;;;;;;5081391;28;20047;-62
2022/08/07 04:23:54;;;;;;;0.10;0.10;;;;;;;;;;5085464;28;20020;-62
2022/08/07 04:26:20;;;;;;;0.10;0.10;;;;;;;;;;5081906;28;20016;-62
2022/08/07 04:28:45;;;;;;;0.00;0.00;;;;;;;;;;5080097;28;20099;-61
2022/08/07 04:31:10;;;;;;;0.00;0.00;;;;;;;;;;5084711;28;20024;-62
2022/08/07 04:33:36;;;;;;;0.00;0.00;;;;;;;;;;5076530;28;20020;-61
2022/08/07 04:36:02;;;;;;;0.00;0.00;;;;;;;;;;5081764;28;20036;-60
2022/08/07 04:38:28;;;;;;;0.20;0.20;;;;;;;;;;5079066;28;20020;-61
2022/08/07 04:40:53;;;;;;;0.00;0.00;;;;;;;;;;5077823;28;20404;-61
2022/08/07 04:43:20;;;;;;;0.00;0.00;;;;;;;;;;5086166;28;20389;-62
2022/08/07 04:45:45;;;;;;;0.00;0.00;;;;;;;;;;5065423;28;20032;-62
2022/08/07 04:48:15;;;;;;;0.00;0.00;;;;;;;;;;5088900;28;20024;-62
2022/08/07 04:50:44;;;;;;;0.10;0.10;;;;;;;;;;5081122;28;20072;-63
2022/08/07 04:53:16;;;;;;;0.00;0.00;;;;;;;;;;5085581;28;20362;-63
2022/08/07 04:55:41;;;;;;;0.20;0.20;;;;;;;;;;5079137;28;20024;-63
2022/08/07 04:58:09;;;;;;;0.00;0.00;;;;;;;;;;5079082;28;20121;-63
2022/08/07 05:00:41;;;;;;;0.00;0.00;;;;;;;;;;5081452;28;20028;-62
2022/08/07 05:03:22;;;;;;;0.00;0.00;;;;;;;;;;5081986;28;20100;-62
2022/08/07 05:05:53;;;;;;;0.00;0.00;;;;;;;;;;5078037;28;20066;-62
2022/08/07 05:08:37;;;;;;;0.00;0.00;;;;;;;;;;5079108;28;20491;-66
2022/08/07 05:11:06;;;;;;;0.00;0.00;;;;;;;;;;5070023;28;20035;-65
2022/08/07 05:13:37;;;;;;;0.00;0.00;;;;;;;;;;5073234;28;20469;-66
2022/08/07 05:16:04;;;;;;;0.00;0.00;;;;;;;;;;5081216;28;20040;-62
2022/08/07 05:18:33;;;;;;;0.00;0.00;;;;;;;;;;5092515;28;20020;-62
2022/08/07 05:21:00;;;;;;;0.00;0.00;;;;;;;;;;5087275;28;20371;-62
2022/08/07 05:23:34;;;;;;;0.00;0.00;;;;;;;;;;5083862;28;20040;-62
2022/08/07 05:26:01;;;;;;;0.00;0.00;;;;;;;;;;5077202;28;20131;-64
2022/08/07 05:28:27;;;;;;;0.00;0.00;;;;;;;;;;5084030;28;20032;-64
2022/08/07 05:30:53;;;;;;;0.00;0.00;;;;;;;;;;5066685;28;20019;-64
2022/08/07 05:33:19;;;;;;;0.00;0.00;;;;;;;;;;5071477;28;20114;-64
2022/08/07 05:35:44;;;;;;;0.00;0.00;;;;;;;;;;5082636;28;20038;-66
2022/08/07 05:38:10;;;;;;;4.75;0.47;;;;;;;;;;5080336;28;20021;-65
2022/08/07 05:40:37;;;;;;;0.00;0.00;;;;;;;;;;5081836;28;20020;-64
2022/08/07 05:43:02;;;;;;;0.00;0.00;;;;;;;;;;5083201;28;20030;-64
2022/08/07 05:45:27;;;;;;;0.00;0.00;;;;;;;;;;5071160;28;20012;-64
2022/08/07 05:47:54;;;;;;;0.00;0.00;;;;;;;;;;5077154;28;20020;-64
2022/08/07 05:50:19;;;;;;;0.00;0.00;;;;;;;;;;5076324;28;20140;-62
2022/08/07 05:52:45;;;;;;;0.08;0.08;;;;;;;;;;5080004;28;20067;-63
2022/08/07 05:55:10;;;;;;;0.00;0.00;;;;;;;;;;5087447;28;20016;-62
2022/08/07 05:57:36;;;;;;;0.05;0.05;;;;;;;;;;5081531;28;20058;-62
2022/08/07 06:00:03;;;;;;;0.00;0.00;;;;;;;;;;5081801;28;20138;-62
2022/08/07 06:02:29;;;;;;;0.00;0.00;;;;;;;;;;5079402;28;20125;-63
2022/08/07 06:04:56;;;;;;;0.00;0.00;;;;;;;;;;5079650;28;20028;-64
2022/08/07 06:07:21;;;;;;;0.00;0.00;;;;;;;;;;5085310;28;20091;-66
2022/08/07 06:09:47;;;;;;;0.00;0.00;;;;;;;;;;5084484;28;20104;-66
2022/08/07 06:12:13;;;;;;;0.00;0.00;;;;;;;;;;5077636;28;20381;-66
2022/08/07 06:14:38;;;;;;;0.00;0.00;;;;;;;;;;5069731;28;20075;-67
2022/08/07 06:17:05;;;;;;;0.00;0.00;;;;;;;;;;5071269;28;20060;-67
2022/08/07 06:19:31;;;;;;;0.00;0.00;;;;;;;;;;5075405;28;20389;-68
2022/08/07 06:21:56;;;;;;;0.00;0.00;;;;;;;;;;5089432;28;20028;-60
2022/08/07 06:24:21;;;;;;;0.00;0.00;;;;;;;;;;5069641;28;20086;-62
2022/08/07 06:26:47;;;;;;;0.17;0.17;;;;;;;;;;5069124;28;20420;-63
2022/08/07 06:29:12;;;;;;;0.00;0.00;;;;;;;;;;5068716;28;20020;-63
2022/08/07 06:31:37;;;;;;;0.00;0.00;;;;;;;;;;5068779;28;20028;-63
2022/08/07 06:34:03;;;;;;;0.20;0.20;;;;;;;;;;5055470;28;20023;-63
2022/08/07 06:36:29;;;;;;;0.00;0.00;;;;;;;;;;5089205;28;20544;-62
2022/08/07 06:38:54;;;;;;;0.00;0.00;;;;;;;;;;5061171;28;20020;-62
2022/08/07 06:41:31;;;;;;;0.05;0.05;;;;;;;;;;5069155;28;20027;-63
2022/08/07 06:43:58;;;;;;;0.00;0.00;;;;;;;;;;5066854;28;20808;-63
2022/08/07 06:46:23;;;;;;;0.00;0.00;;;;;;;;;;5071637;28;20029;-64
2022/08/07 06:48:48;;;;;;;0.00;0.00;;;;;;;;;;5068514;28;20512;-61
2022/08/07 06:51:16;;;;;;;0.00;0.00;;;;;;;;;;5071083;28;20055;-63
2022/08/07 06:53:42;;;;;;;0.10;0.10;;;;;;;;;;5069089;28;20035;-63
2022/08/07 06:56:09;;;;;;;0.00;0.00;;;;;;;;;;5068773;28;20470;-63
2022/08/07 06:58:34;;;;;;;0.00;0.00;;;;;;;;;;5068960;28;20032;-62
2022/08/07 07:01:01;;;;;;;0.00;0.00;;;;;;;;;;5068361;28;20050;-62
2022/08/07 07:03:27;;;;;;;0.00;0.00;;;;;;;;;;5082366;28;20027;-62
2022/08/07 07:05:52;;;;;;;0.00;0.00;;;;;;;;;;5088799;28;20020;-63
2022/08/07 07:08:17;;;;;;;0.00;0.00;;;;;;;;;;5080916;28;20067;-62
2022/08/07 07:10:42;;;;;;;0.00;0.00;;;;;;;;;;5068678;28;20036;-62
2022/08/07 07:13:15;;;;;;;0.00;0.00;;;;;;;;;;5067261;28;20025;-63
2022/08/07 07:15:55;;;;;;;0.00;0.00;;;;;;;;;;5070803;28;20074;-63
2022/08/07 07:18:24;;;;;;;0.00;0.00;;;;;;;;;;5068310;28;20024;-63
2022/08/07 07:20:55;;;;;;;0.00;0.00;;;;;;;;;;5070269;28;20041;-63
2022/08/07 07:23:20;;;;;;;0.13;0.13;;;;;;;;;;5088655;28;20034;-63
2022/08/07 07:25:47;;;;;;;0.00;0.00;;;;;;;;;;5088803;28;20099;-63
2022/08/07 07:28:48;;;;;;;0.00;0.00;;;;;;;;;;5081182;28;20016;-63
2022/08/07 07:31:22;;;;;;;0.00;0.00;;;;;;;;;;5025464;28;20564;-62
2022/08/07 07:33:50;;;;;;;0.00;0.00;;;;;;;;;;5079379;28;20343;-63
2022/08/07 07:36:15;;;;;;;0.00;0.00;;;;;;;;;;5076622;28;20029;-62
2022/08/07 07:38:41;;;;;;;0.00;0.00;;;;;;;;;;5068581;28;20071;-63
2022/08/07 07:41:08;;;;;;;0.00;0.00;;;;;;;;;;5067919;28;20048;-63
2022/08/07 07:43:35;;;;;;;0.00;0.00;;;;;;;;;;5065414;28;20020;-62
2022/08/07 07:46:01;;;;;;;0.00;0.00;;;;;;;;;;5068377;28;20058;-62
2022/08/07 07:48:27;;;;;;;0.10;0.10;;;;;;;;;;5071875;28;20118;-62
2022/08/07 07:50:53;;;;;;;0.00;0.00;;;;;;;;;;5071665;28;20043;-63
2022/08/07 07:53:19;;;;;;;0.00;0.00;;;;;;;;;;5071742;28;20077;-61
2022/08/07 07:55:44;;;;;;;0.00;0.00;;;;;;;;;;5071463;28;20276;-62
2022/08/07 07:58:10;;;;;;;0.00;0.00;;;;;;;;;;5071434;28;20036;-63
2022/08/07 08:00:36;;;;;;;0.00;0.00;;;;;;;;;;5071889;28;20031;-62
2022/08/07 08:03:04;;;;;;;0.00;0.00;;;;;;;;;;5071461;28;20058;-62
2022/08/07 08:05:29;;;;;;;0.00;0.00;;;;;;;;;;5071699;28;20020;-62
2022/08/07 08:07:54;;;;;;;0.00;0.00;;;;;;;;;;5071636;28;20078;-62
2022/08/07 08:10:20;;;;;;;0.00;0.00;;;;;;;;;;5069034;28;20144;-62
2022/08/07 08:12:45;;;;;;;0.00;0.00;;;;;;;;;;5071818;28;20296;-63
2022/08/07 08:15:11;;;;;;;0.00;0.00;;;;;;;;;;5070461;28;20028;-62
2022/08/07 08:17:36;;;;;;;0.00;0.00;;;;;;;;;;5084004;28;20012;-63
2022/08/07 08:20:04;;;;;;;0.00;0.00;;;;;;;;;;5091057;28;20063;-63
2022/08/07 08:28:00;;;;;;;0.00;0.00;;;;;;;;;;5071294;28;20027;-62
2022/08/07 08:30:26;;;;;;;0.00;0.00;;;;;;;;;;5089564;28;20032;-63
2022/08/07 08:32:52;;;;;;;0.00;0.00;;;;;;;;;;5085323;28;20362;-63
2022/08/07 08:35:20;;;;;;;11.77;4.72;;;;;;;;;;5076269;28;20032;-63
2022/08/07 08:37:46;;;;;;;0.00;0.00;;;;;;;;;;5091250;28;20035;-64
2022/08/07 08:40:19;;;;;;;0.03;0.03;;;;;;;;;;5081314;28;20020;-63
2022/08/07 08:42:56;;;;;;;0.00;0.00;;;;;;;;;;5071744;28;20122;-63
2022/08/07 08:45:37;;;;;;;0.00;0.00;;;;;;;;;;5070870;28;20073;-62
2022/08/07 08:48:08;;;;;;;0.00;0.00;;;;;;;;;;5070596;28;20036;-62
2022/08/07 08:50:43;;;;;;;0.00;0.00;;;;;;;;;;5066544;28;20076;-62
2022/08/07 08:53:12;;;;;;;0.10;0.10;;;;;;;;;;5071072;28;20024;-63
2022/08/07 08:55:40;;;;;;;0.00;0.00;;;;;;;;;;5078004;28;20488;-64
2022/08/07 08:58:26;;;;;;;0.00;0.00;;;;;;;;;;5074560;28;20028;-63
2022/08/07 09:00:55;;;;;;;0.15;0.15;;;;;;;;;;5072545;28;20032;-63
2022/08/07 09:03:32;;;;;;;0.00;0.00;;;;;;;;;;5067361;28;20025;-63
2022/08/07 09:06:03;;;;;;;0.00;0.00;;;;;;;;;;5066314;28;20032;-63
2022/08/07 09:08:43;;;;;;;0.10;0.10;;;;;;;;;;5067926;28;20110;-62
2022/08/07 09:11:38;;;;;;;0.00;0.00;;;;;;;;;;5068691;28;20028;-62
2022/08/07 09:14:19;;;;;;;0.00;0.00;;;;;;;;;;5063749;28;20089;-61
2022/08/07 09:17:00;;;;;;;0.00;0.00;;;;;;;;;;5068658;28;20023;-62
2022/08/07 09:19:28;;;;;;;0.00;0.00;;;;;;;;;;5068300;28;20443;-65
2022/08/07 09:22:06;;;;;;;0.00;0.00;;;;;;;;;;5082636;28;20530;-64
2022/08/07 09:24:37;;;;;;;0.10;0.10;;;;;;;;;;5068346;28;20079;-64
2022/08/07 09:27:09;;;;;;;0.00;0.00;;;;;;;;;;5069616;28;20044;-65
2022/08/07 09:29:34;;;;;;;0.40;0.40;;;;;;;;;;5072196;28;20052;-65
2022/08/07 09:31:59;;;;;;;0.00;0.00;;;;;;;;;;5087567;28;20103;-61
2022/08/07 09:34:45;;;;;;;0.00;0.00;;;;;;;;;;5084377;28;20021;-62
2022/08/07 09:37:18;;;;;;;0.00;0.00;;;;;;;;;;5035445;28;20042;-63
2022/08/07 09:39:43;;;;;;;0.00;0.00;;;;;;;;;;5068237;28;20102;-62
2022/08/07 09:42:22;;;;;;;0.00;0.00;;;;;;;;;;5069092;28;20075;-62
2022/08/07 09:44:59;;;;;;;0.00;0.00;;;;;;;;;;5069748;28;20024;-61
2022/08/07 09:47:42;;;;;;;0.00;0.00;;;;;;;;;;5069067;28;20025;-62
2022/08/07 09:50:16;;;;;;;0.00;0.00;;;;;;;;;;5070194;28;20097;-61
2022/08/07 09:52:48;;;;;;;0.00;0.00;;;;;;;;;;5068789;28;20105;-62
2022/08/07 09:55:20;;;;;;;0.00;0.00;;;;;;;;;;5068695;28;20021;-62
2022/08/07 09:57:51;;;;;;;0.00;0.00;;;;;;;;;;5068639;28;20032;-63
2022/08/07 10:00:20;;;;;;;0.00;0.00;;;;;;;;;;5067876;28;20024;-61
2022/08/07 10:02:58;;;;;;;0.00;0.00;;;;;;;;;;5069102;28;20024;-62
2022/08/07 10:05:42;;;;;;;0.15;0.15;;;;;;;;;;5067460;28;20036;-62
2022/08/07 10:08:26;;;;;;;0.00;0.00;;;;;;;;;;5072477;28;20020;-62
2022/08/07 10:11:07;;;;;;;0.00;0.00;;;;;;;;;;5069470;28;20020;-63
2022/08/07 10:13:32;;;;;;;0.00;0.00;;;;;;;;;;5085343;28;20031;-65
2022/08/07 10:16:05;;;;;;;0.00;0.00;;;;;;;;;;5081755;28;20056;-63
2022/08/07 10:18:48;;;;;;;1.60;0.10;;;;;;;;;;5088524;28;20627;-63
2022/08/07 10:21:14;;;;;;;0.08;0.08;;;;;;;;;;5073134;28;20381;-62
2022/08/07 10:23:48;;;;;;;0.05;0.05;;;;;;;;;;5069944;28;20103;-61
2022/08/07 10:26:19;;;;;;;0.00;0.00;;;;;;;;;;5084833;28;20025;-62
2022/08/07 10:29:03;;;;;;;0.00;0.00;;;;;;;;;;5088683;28;20023;-61
2022/08/07 10:31:35;;;;;;;0.00;0.00;;;;;;;;;;5088809;28;20020;-62
2022/08/07 10:34:14;;;;;;;0.13;0.13;;;;;;;;;;5087860;28;20031;-60
2022/08/07 10:36:42;;;;;;;0.00;0.00;;;;;;;;;;5067859;28;20025;-61
2022/08/07 10:39:07;;;;;;;0.00;0.00;;;;;;;;;;5075108;28;20035;-62
2022/08/07 10:41:56;;;;;;;0.00;0.00;;;;;;;;;;5088436;28;20020;-61
2022/08/07 10:44:21;;;;;;;0.20;0.08;;;;;;;;;;5079371;28;20824;-61
2022/08/07 10:47:04;;;;;;;0.00;0.00;;;;;;;;;;5070056;28;20060;-63
2022/08/07 10:49:47;;;;;;;0.00;0.00;;;;;;;;;;5067640;28;20040;-62
2022/08/07 10:52:18;;;;;;;0.00;0.00;;;;;;;;;;5068110;28;20512;-62
2022/08/07 10:54:55;;;;;;;1.17;0.22;;;;;;;;;;5070693;28;20028;-62
2022/08/07 10:57:25;;;;;;;0.00;0.00;;;;;;;;;;5080301;28;20321;-62
2022/08/07 11:00:11;;;;;;;0.00;0.00;;;;;;;;;;5057761;28;20029;-63
2022/08/07 11:02:45;;;;;;;0.00;0.00;;;;;;;;;;5056861;28;20590;-61
2022/08/07 11:05:13;;;;;;;3.53;0.10;;;;;;;;;;5068763;28;20020;-62
2022/08/07 11:07:48;;;;;;;0.00;0.00;;;;;;;;;;5066602;28;20016;-62
2022/08/07 11:10:39;;;;;;;0.00;0.00;;;;;;;;;;5065097;28;20112;-60
2022/08/07 11:13:23;;;;;;;0.00;0.00;;;;;;;;;;5063680;28;20037;-61
2022/08/07 11:15:49;;;;;;;0.00;0.00;;;;;;;;;;5068735;28;20048;-61
2022/08/07 11:18:14;;;;;;;0.00;0.00;;;;;;;;;;5072565;28;20062;-61
2022/08/07 11:20:55;;;;;;;0.10;0.10;;;;;;;;;;5062462;28;20024;-61
2022/08/07 11:23:27;;;;;;;0.08;0.08;;;;;;;;;;5074637;28;20466;-62
2022/08/07 11:26:21;;;;;;;0.00;0.00;;;;;;;;;;5070910;28;20043;-61
2022/08/07 11:28:50;;;;;;;0.00;0.00;;;;;;;;;;5057846;28;20120;-62
2022/08/07 11:31:23;;;;;;;0.00;0.00;;;;;;;;;;5070245;28;20385;-62
2022/08/07 11:34:07;;;;;;;0.00;0.00;;;;;;;;;;5073379;28;20113;-64
2022/08/07 11:36:38;;;;;;;0.00;0.00;;;;;;;;;;5071320;28;20050;-63
2022/08/07 11:39:18;;;;;;;0.15;0.15;;;;;;;;;;5071711;28;20702;-63
2022/08/07 11:41:46;;;;;;;0.00;0.00;;;;;;;;;;5072677;28;20032;-62
2022/08/07 11:44:14;;;;;;;0.00;0.00;;;;;;;;;;5071830;28;20017;-63
2022/08/07 11:46:47;;;;;;;0.00;0.00;;;;;;;;;;5070163;28;20055;-62
2022/08/07 11:49:12;;;;;;;0.00;0.00;;;;;;;;;;5071054;28;20036;-62
2022/08/07 11:51:56;;;;;;;0.00;0.00;;;;;;;;;;5072182;28;20031;-63
2022/08/07 11:54:40;;;;;;;2.20;0.75;;;;;;;;;;5070577;28;20302;-63
2022/08/07 11:57:15;;;;;;;0.00;0.00;;;;;;;;;;5071235;28;20098;-65
2022/08/07 11:59:43;;;;;;;0.00;0.00;;;;;;;;;;5072116;28;20020;-63
2022/08/07 12:02:27;;;;;;;0.00;0.00;;;;;;;;;;5069866;28;20036;-63
2022/08/07 12:05:01;;;;;;;0.00;0.00;;;;;;;;;;5062982;28;20031;-63
2022/08/07 12:07:28;;;;;;;0.00;0.00;;;;;;;;;;5091379;28;20020;-62
2022/08/07 12:10:14;;;;;;;0.00;0.00;;;;;;;;;;5092042;28;20046;-63
2022/08/07 12:12:42;;;;;;;0.05;0.05;;;;;;;;;;5080091;28;20660;-64
2022/08/07 12:15:07;;;;;;;0.00;0.00;;;;;;;;;;5070849;28;20048;-63
2022/08/07 12:17:41;;;;;;;0.00;0.00;;;;;;;;;;5069987;28;20047;-64
2022/08/07 12:20:07;;;;;;;0.00;0.00;;;;;;;;;;5070717;28;20024;-62
2022/08/07 12:23:04;;;;;;;0.00;0.00;;;;;;;;;;5077644;28;20012;-63
2022/08/07 12:25:51;;;;;;;0.10;0.10;;;;;;;;;;5072294;28;20106;-62
2022/08/07 12:28:20;;;;;;;0.00;0.00;;;;;;;;;;5069008;28;20025;-63
2022/08/07 12:30:47;;;;;;;0.00;0.00;;;;;;;;;;5069709;28;20043;-63
2022/08/07 12:33:17;;;;;;;0.00;0.00;;;;;;;;;;5069436;28;20050;-64
2022/08/07 12:35:45;;;;;;;0.00;0.00;;;;;;;;;;5050689;28;20078;-63
2022/08/07 12:38:12;;;;;;;0.00;0.00;;;;;;;;;;5071508;28;21737;-64
2022/08/07 12:40:39;;;;;;;0.10;0.10;;;;;;;;;;5078669;28;20042;-63
2022/08/07 12:43:05;;;;;;;0.00;0.00;;;;;;;;;;5091401;28;20020;-63
2022/08/07 12:45:32;;;;;;;0.00;0.00;;;;;;;;;;5063584;28;20016;-63
2022/08/07 12:48:12;;;;;;;0.22;0.22;;;;;;;;;;5079694;28;20362;-63
2022/08/07 12:50:47;;;;;;;0.22;0.00;;;;;;;;;;5049759;28;20182;-62
2022/08/07 12:53:16;;;;;;;0.00;0.00;;;;;;;;;;5067051;28;20032;-63
2022/08/07 12:55:49;;;;;;;0.00;0.00;;;;;;;;;;5071110;28;20031;-63
2022/08/07 12:58:16;;;;;;;0.00;0.00;;;;;;;;;;5067325;28;20048;-63
2022/08/07 13:00:47;;;;;;;0.08;0.08;;;;;;;;;;5068458;28;20083;-62
2022/08/07 13:03:15;;;;;;;0.00;0.00;;;;;;;;;;5078639;28;20036;-61
2022/08/07 13:05:51;;;;;;;0.00;0.00;;;;;;;;;;5067496;28;20021;-64
2022/08/07 13:08:30;;;;;;;0.00;0.00;;;;;;;;;;5062275;28;20031;-63
2022/08/07 13:10:58;;;;;;;0.00;0.00;;;;;;;;;;5068121;28;20549;-62
2022/08/07 13:13:32;;;;;;;0.47;0.47;;;;;;;;;;5069314;28;20101;-63
2022/08/07 13:16:03;;;;;;;0.00;0.00;;;;;;;;;;5073000;28;20028;-62
2022/08/07 13:18:49;;;;;;;0.00;0.00;;;;;;;;;;5071271;28;20380;-62
2022/08/07 13:21:26;;;;;;;0.20;0.05;;;;;;;;;;5068742;28;20039;-63
2022/08/07 13:23:57;;;;;;;0.00;0.00;;;;;;;;;;5065097;28;20024;-64
2022/08/07 13:26:30;;;;;;;0.00;0.00;;;;;;;;;;5071523;28;20024;-62
2022/08/07 13:29:11;;;;;;;0.00;0.00;;;;;;;;;;5071418;28;20115;-63
2022/08/07 13:31:39;;;;;;;0.00;0.00;;;;;;;;;;5067294;28;20035;-63
2022/08/07 13:34:12;;;;;;;0.00;0.00;;;;;;;;;;5069327;28;20032;-63
2022/08/07 13:36:42;;;;;;;0.00;0.00;;;;;;;;;;5069155;28;20461;-62
2022/08/07 13:39:07;;;;;;;0.00;0.00;;;;;;;;;;5068004;28;20021;-63
2022/08/07 13:41:37;;;;;;;0.10;0.10;;;;;;;;;;5067075;28;21915;-63
2022/08/07 13:44:03;;;;;;;0.00;0.00;;;;;;;;;;5067557;28;20342;-63
2022/08/07 13:46:39;;;;;;;0.00;0.00;;;;;;;;;;5062328;28;20024;-63
2022/08/07 13:49:06;;;;;;;0.00;0.00;;;;;;;;;;5069082;28;20041;-63
2022/08/07 13:51:32;;;;;;;0.10;0.10;;;;;;;;;;5069147;28;20454;-63
2022/08/07 13:54:01;;;;;;;0.03;0.03;;;;;;;;;;5068414;28;20466;-62
2022/08/07 13:56:27;;;;;;;0.00;0.00;;;;;;;;;;5066772;28;20020;-62
2022/08/07 13:58:59;;;;;;;0.22;0.22;;;;;;;;;;5063299;28;20050;-62
2022/08/07 14:01:32;;;;;;;0.57;0.57;;;;;;;;;;5059519;28;20024;-65
2022/08/07 14:04:01;;;;;;;0.00;0.00;;;;;;;;;;5059390;28;20047;-66
2022/08/07 14:06:47;;;;;;;0.00;0.00;;;;;;;;;;5066941;28;20017;-67
2022/08/07 14:09:19;;;;;;;0.00;0.00;;;;;;;;;;5064842;28;20028;-66
2022/08/07 14:11:48;;;;;;;0.00;0.00;;;;;;;;;;5062634;28;20025;-66
2022/08/07 14:14:14;;;;;;;0.00;0.00;;;;;;;;;;5062214;28;20021;-66
2022/08/07 14:16:40;;;;;;;0.00;0.00;;;;;;;;;;5060407;28;20110;-68
2022/08/07 14:19:13;;;;;;;0.00;0.00;;;;;;;;;;5061420;28;20028;-67
2022/08/07 14:21:40;;;;;;;0.00;0.00;;;;;;;;;;5067332;28;20602;-67
2022/08/07 14:24:21;;;;;;;0.00;0.00;;;;;;;;;;5066086;28;20029;-67
2022/08/07 14:26:50;;;;;;;0.00;0.00;;;;;;;;;;5066649;28;20024;-66
2022/08/07 14:29:17;;;;;;;0.00;0.00;;;;;;;;;;5062039;28;20033;-67
2022/08/07 14:31:43;;;;;;;0.00;0.00;;;;;;;;;;5061738;28;20119;-65
2022/08/07 14:34:10;;;;;;;0.00;0.00;;;;;;;;;;5058995;28;20107;-65
2022/08/07 14:36:35;;;;;;;0.20;0.03;;;;;;;;;;5064793;28;20028;-63
2022/08/07 14:39:02;;;;;;;0.00;0.00;;;;;;;;;;5059580;28;20036;-65
2022/08/07 14:41:28;;;;;;;0.00;0.00;;;;;;;;;;5067756;28;21110;-64
2022/08/07 14:43:54;;;;;;;0.00;0.00;;;;;;;;;;5050484;28;21456;-65
2022/08/07 14:46:19;;;;;;;0.00;0.00;;;;;;;;;;5054017;28;20029;-66
2022/08/07 14:48:46;;;;;;;0.00;0.00;;;;;;;;;;5057889;28;20032;-66
2022/08/07 14:51:16;;;;;;;0.00;0.00;;;;;;;;;;5058493;28;20036;-65
2022/08/07 14:53:43;;;;;;;0.00;0.00;;;;;;;;;;5062095;28;20056;-66
2022/08/07 14:56:09;;;;;;;0.00;0.00;;;;;;;;;;5063645;28;20024;-66
2022/08/07 14:58:37;;;;;;;0.00;0.00;;;;;;;;;;5068365;28;20024;-66
2022/08/07 15:01:04;;;;;;;0.28;0.28;;;;;;;;;;5068318;28;20020;-65